sensor_id;sensor_type;location;lat;lon;timestamp;temperature;humidity
41668;DHT22;27356;50.920;5.350;2024-01-30T00:00:26;9.40;99.90
41668;DHT22;27356;50.920;5.350;2024-01-30T00:02:52;9.30;99.90
41668;DHT22;27356;50.920;5.350;2024-01-30T00:05:17;9.30;99.90
41668;DHT22;27356;50.920;5.350;2024-01-30T00:07:43;9.30;99.90
41668;DHT22;27356;50.920;5.350;2024-01-30T00:10:09;9.30;99.90
41668;DHT22;27356;50.920;5.350;2024-01-30T00:12:35;9.20;99.90
41668;DHT22;27356;50.920;5.350;2024-01-30T00:15:01;9.20;99.90
41668;DHT22;27356;50.920;5.350;2024-01-30T00:17:27;9.20;99.90
41668;DHT22;27356;50.920;5.350;2024-01-30T00:19:52;9.20;99.90
41668;DHT22;27356;50.920;5.350;2024-01-30T00:22:18;9.30;99.90
41668;DHT22;27356;50.920;5.350;2024-01-30T00:24:44;9.30;99.90
41668;DHT22;27356;50.920;5.350;2024-01-30T00:27:10;9.40;99.90
41668;DHT22;27356;50.920;5.350;2024-01-30T00:29:36;9.30;99.90
41668;DHT22;27356;50.920;5.350;2024-01-30T00:32:02;9.30;99.90
41668;DHT22;27356;50.920;5.350;2024-01-30T00:34:28;9.40;99.90
41668;DHT22;27356;50.920;5.350;2024-01-30T00:36:53;9.40;99.90
41668;DHT22;27356;50.920;5.350;2024-01-30T00:39:19;9.40;99.90
41668;DHT22;27356;50.920;5.350;2024-01-30T00:41:45;9.40;99.90
41668;DHT22;27356;50.920;5.350;2024-01-30T00:44:11;9.40;99.90
41668;DHT22;27356;50.920;5.350;2024-01-30T00:46:37;9.40;99.90
41668;DHT22;27356;50.920;5.350;2024-01-30T00:49:03;9.30;99.90
41668;DHT22;27356;50.920;5.350;2024-01-30T00:51:29;9.40;99.90
41668;DHT22;27356;50.920;5.350;2024-01-30T00:53:55;9.40;99.90
41668;DHT22;27356;50.920;5.350;2024-01-30T00:56:21;9.50;99.90
41668;DHT22;27356;50.920;5.350;2024-01-30T00:58:47;9.40;99.90
41668;DHT22;27356;50.920;5.350;2024-01-30T01:01:13;9.40;99.90
41668;DHT22;27356;50.920;5.350;2024-01-30T01:03:40;9.30;99.90
41668;DHT22;27356;50.920;5.350;2024-01-30T01:06:06;9.30;99.90
41668;DHT22;27356;50.920;5.350;2024-01-30T01:08:32;9.40;99.90
41668;DHT22;27356;50.920;5.350;2024-01-30T01:10:58;9.30;99.90
41668;DHT22;27356;50.920;5.350;2024-01-30T01:13:24;9.30;99.90
41668;DHT22;27356;50.920;5.350;2024-01-30T01:15:49;9.30;99.90
41668;DHT22;27356;50.920;5.350;2024-01-30T01:18:15;9.40;99.90
41668;DHT22;27356;50.920;5.350;2024-01-30T01:20:41;9.30;99.90
41668;DHT22;27356;50.920;5.350;2024-01-30T01:23:07;9.30;99.90
41668;DHT22;27356;50.920;5.350;2024-01-30T01:25:33;9.30;99.90
41668;DHT22;27356;50.920;5.350;2024-01-30T01:27:59;9.30;99.90
41668;DHT22;27356;50.920;5.350;2024-01-30T01:30:26;9.30;99.90
41668;DHT22;27356;50.920;5.350;2024-01-30T01:32:53;9.30;99.90
41668;DHT22;27356;50.920;5.350;2024-01-30T01:35:25;9.30;99.90
41668;DHT22;27356;50.920;5.350;2024-01-30T01:37:52;9.30;99.90
41668;DHT22;27356;50.920;5.350;2024-01-30T01:40:22;9.30;99.90
41668;DHT22;27356;50.920;5.350;2024-01-30T01:42:50;9.30;99.90
41668;DHT22;27356;50.920;5.350;2024-01-30T01:45:17;9.30;99.90
41668;DHT22;27356;50.920;5.350;2024-01-30T01:47:44;9.30;99.90
41668;DHT22;27356;50.920;5.350;2024-01-30T01:50:13;9.20;99.90
41668;DHT22;27356;50.920;5.350;2024-01-30T01:52:40;9.20;99.90
41668;DHT22;27356;50.920;5.350;2024-01-30T01:55:07;9.30;99.90
41668;DHT22;27356;50.920;5.350;2024-01-30T01:57:34;9.30;99.90
41668;DHT22;27356;50.920;5.350;2024-01-30T02:00:01;9.30;99.90
41668;DHT22;27356;50.920;5.350;2024-01-30T02:02:30;9.20;99.90
41668;DHT22;27356;50.920;5.350;2024-01-30T02:04:57;9.40;99.90
41668;DHT22;27356;50.920;5.350;2024-01-30T02:07:24;9.40;99.90
41668;DHT22;27356;50.920;5.350;2024-01-30T02:09:50;9.40;99.90
41668;DHT22;27356;50.920;5.350;2024-01-30T02:12:16;9.40;99.90
41668;DHT22;27356;50.920;5.350;2024-01-30T02:14:45;9.40;99.90
41668;DHT22;27356;50.920;5.350;2024-01-30T02:17:12;9.50;99.90
41668;DHT22;27356;50.920;5.350;2024-01-30T02:19:38;9.60;99.90
41668;DHT22;27356;50.920;5.350;2024-01-30T02:22:04;9.60;99.90
41668;DHT22;27356;50.920;5.350;2024-01-30T02:24:31;9.60;99.90
41668;DHT22;27356;50.920;5.350;2024-01-30T02:26:56;9.70;99.90
41668;DHT22;27356;50.920;5.350;2024-01-30T02:29:22;9.70;99.90
41668;DHT22;27356;50.920;5.350;2024-01-30T02:31:48;9.70;99.90
41668;DHT22;27356;50.920;5.350;2024-01-30T02:34:14;9.70;99.90
41668;DHT22;27356;50.920;5.350;2024-01-30T02:36:43;9.70;99.90
41668;DHT22;27356;50.920;5.350;2024-01-30T02:39:09;9.70;99.90
41668;DHT22;27356;50.920;5.350;2024-01-30T02:41:35;9.70;99.90
41668;DHT22;27356;50.920;5.350;2024-01-30T02:44:02;9.70;99.90
41668;DHT22;27356;50.920;5.350;2024-01-30T02:46:28;9.80;99.90
41668;DHT22;27356;50.920;5.350;2024-01-30T02:48:54;9.80;99.90
41668;DHT22;27356;50.920;5.350;2024-01-30T02:51:20;9.80;99.90
41668;DHT22;27356;50.920;5.350;2024-01-30T02:53:45;9.90;99.90
41668;DHT22;27356;50.920;5.350;2024-01-30T02:56:11;9.90;99.90
41668;DHT22;27356;50.920;5.350;2024-01-30T02:58:39;9.90;99.90
41668;DHT22;27356;50.920;5.350;2024-01-30T03:01:06;10.10;99.90
41668;DHT22;27356;50.920;5.350;2024-01-30T03:03:32;10.10;99.90
41668;DHT22;27356;50.920;5.350;2024-01-30T03:06:00;10.00;99.90
41668;DHT22;27356;50.920;5.350;2024-01-30T03:08:26;10.00;99.90
41668;DHT22;27356;50.920;5.350;2024-01-30T03:10:52;10.00;99.90
41668;DHT22;27356;50.920;5.350;2024-01-30T03:13:17;10.10;99.90
41668;DHT22;27356;50.920;5.350;2024-01-30T03:15:43;10.10;99.90
41668;DHT22;27356;50.920;5.350;2024-01-30T03:18:09;10.20;99.90
41668;DHT22;27356;50.920;5.350;2024-01-30T03:20:35;10.10;99.90
41668;DHT22;27356;50.920;5.350;2024-01-30T03:23:01;10.20;99.90
41668;DHT22;27356;50.920;5.350;2024-01-30T03:25:27;10.20;99.90
41668;DHT22;27356;50.920;5.350;2024-01-30T03:27:52;10.10;99.90
41668;DHT22;27356;50.920;5.350;2024-01-30T03:30:18;10.00;99.90
41668;DHT22;27356;50.920;5.350;2024-01-30T03:32:44;10.00;99.90
41668;DHT22;27356;50.920;5.350;2024-01-30T03:35:10;10.00;99.90
41668;DHT22;27356;50.920;5.350;2024-01-30T03:37:36;10.00;99.90
41668;DHT22;27356;50.920;5.350;2024-01-30T03:40:02;10.00;99.90
41668;DHT22;27356;50.920;5.350;2024-01-30T03:42:28;10.00;99.90
41668;DHT22;27356;50.920;5.350;2024-01-30T03:44:54;10.00;99.90
41668;DHT22;27356;50.920;5.350;2024-01-30T03:47:21;10.00;99.90
41668;DHT22;27356;50.920;5.350;2024-01-30T03:49:47;10.00;99.90
41668;DHT22;27356;50.920;5.350;2024-01-30T03:52:12;10.00;99.90
41668;DHT22;27356;50.920;5.350;2024-01-30T03:54:38;10.00;99.90
41668;DHT22;27356;50.920;5.350;2024-01-30T03:57:04;9.90;99.90
41668;DHT22;27356;50.920;5.350;2024-01-30T03:59:30;10.00;99.90
41668;DHT22;27356;50.920;5.350;2024-01-30T04:01:56;10.00;99.90
41668;DHT22;27356;50.920;5.350;2024-01-30T04:04:22;10.10;99.90
41668;DHT22;27356;50.920;5.350;2024-01-30T04:06:48;10.10;99.90
41668;DHT22;27356;50.920;5.350;2024-01-30T04:09:14;10.10;99.90
41668;DHT22;27356;50.920;5.350;2024-01-30T04:11:41;10.00;99.90
41668;DHT22;27356;50.920;5.350;2024-01-30T04:14:08;9.90;99.90
41668;DHT22;27356;50.920;5.350;2024-01-30T04:16:34;9.90;99.90
41668;DHT22;27356;50.920;5.350;2024-01-30T04:18:59;9.90;99.90
41668;DHT22;27356;50.920;5.350;2024-01-30T04:21:25;9.90;99.90
41668;DHT22;27356;50.920;5.350;2024-01-30T04:23:51;9.90;99.90
41668;DHT22;27356;50.920;5.350;2024-01-30T04:26:17;9.80;99.90
41668;DHT22;27356;50.920;5.350;2024-01-30T04:28:46;9.80;99.90
41668;DHT22;27356;50.920;5.350;2024-01-30T04:31:12;9.80;99.90
41668;DHT22;27356;50.920;5.350;2024-01-30T04:33:38;9.80;99.90
41668;DHT22;27356;50.920;5.350;2024-01-30T04:36:07;9.70;99.90
41668;DHT22;27356;50.920;5.350;2024-01-30T04:38:34;9.80;99.90
41668;DHT22;27356;50.920;5.350;2024-01-30T04:41:00;9.70;99.90
41668;DHT22;27356;50.920;5.350;2024-01-30T04:43:26;9.60;99.90
41668;DHT22;27356;50.920;5.350;2024-01-30T04:45:52;9.60;99.90
41668;DHT22;27356;50.920;5.350;2024-01-30T04:48:18;9.70;99.90
41668;DHT22;27356;50.920;5.350;2024-01-30T04:50:43;9.70;99.90
41668;DHT22;27356;50.920;5.350;2024-01-30T04:53:09;9.70;99.90
41668;DHT22;27356;50.920;5.350;2024-01-30T04:55:35;9.70;99.90
41668;DHT22;27356;50.920;5.350;2024-01-30T04:58:02;9.70;99.90
41668;DHT22;27356;50.920;5.350;2024-01-30T05:00:28;9.70;99.90
41668;DHT22;27356;50.920;5.350;2024-01-30T05:02:55;9.70;99.90
41668;DHT22;27356;50.920;5.350;2024-01-30T05:05:21;9.80;99.90
41668;DHT22;27356;50.920;5.350;2024-01-30T05:07:47;9.80;99.90
41668;DHT22;27356;50.920;5.350;2024-01-30T05:10:13;9.90;99.90
41668;DHT22;27356;50.920;5.350;2024-01-30T05:12:40;9.80;99.90
41668;DHT22;27356;50.920;5.350;2024-01-30T05:15:06;9.80;99.90
41668;DHT22;27356;50.920;5.350;2024-01-30T05:17:32;9.80;99.90
41668;DHT22;27356;50.920;5.350;2024-01-30T05:19:58;9.80;99.90
41668;DHT22;27356;50.920;5.350;2024-01-30T05:22:24;9.90;99.90
41668;DHT22;27356;50.920;5.350;2024-01-30T05:24:50;9.80;99.90
41668;DHT22;27356;50.920;5.350;2024-01-30T05:27:15;9.80;99.90
41668;DHT22;27356;50.920;5.350;2024-01-30T05:29:41;9.90;99.90
41668;DHT22;27356;50.920;5.350;2024-01-30T05:32:07;9.90;99.90
41668;DHT22;27356;50.920;5.350;2024-01-30T05:34:33;9.90;99.90
41668;DHT22;27356;50.920;5.350;2024-01-30T05:36:59;9.90;99.90
41668;DHT22;27356;50.920;5.350;2024-01-30T05:39:24;10.00;99.90
41668;DHT22;27356;50.920;5.350;2024-01-30T05:41:50;10.00;99.90
41668;DHT22;27356;50.920;5.350;2024-01-30T05:44:16;10.00;99.90
41668;DHT22;27356;50.920;5.350;2024-01-30T05:46:42;10.00;99.90
41668;DHT22;27356;50.920;5.350;2024-01-30T05:49:08;10.00;99.90
41668;DHT22;27356;50.920;5.350;2024-01-30T05:51:33;10.00;99.90
41668;DHT22;27356;50.920;5.350;2024-01-30T05:53:59;10.00;99.90
41668;DHT22;27356;50.920;5.350;2024-01-30T05:56:25;10.10;99.90
41668;DHT22;27356;50.920;5.350;2024-01-30T05:58:51;10.20;99.90
41668;DHT22;27356;50.920;5.350;2024-01-30T06:01:16;10.20;99.90
41668;DHT22;27356;50.920;5.350;2024-01-30T06:03:42;10.20;99.90
41668;DHT22;27356;50.920;5.350;2024-01-30T06:06:09;10.20;99.90
41668;DHT22;27356;50.920;5.350;2024-01-30T06:08:34;10.10;99.90
41668;DHT22;27356;50.920;5.350;2024-01-30T06:11:00;10.20;99.90
41668;DHT22;27356;50.920;5.350;2024-01-30T06:13:26;10.10;99.90
41668;DHT22;27356;50.920;5.350;2024-01-30T06:15:52;10.20;99.90
41668;DHT22;27356;50.920;5.350;2024-01-30T06:18:18;10.10;99.90
41668;DHT22;27356;50.920;5.350;2024-01-30T06:20:44;10.30;99.90
41668;DHT22;27356;50.920;5.350;2024-01-30T06:23:10;10.30;99.90
41668;DHT22;27356;50.920;5.350;2024-01-30T06:25:36;10.30;99.90
41668;DHT22;27356;50.920;5.350;2024-01-30T06:28:01;10.30;99.90
41668;DHT22;27356;50.920;5.350;2024-01-30T06:30:27;10.30;99.90
41668;DHT22;27356;50.920;5.350;2024-01-30T06:32:53;10.40;99.90
41668;DHT22;27356;50.920;5.350;2024-01-30T06:35:19;10.40;99.90
41668;DHT22;27356;50.920;5.350;2024-01-30T06:37:45;10.40;99.90
41668;DHT22;27356;50.920;5.350;2024-01-30T06:40:11;10.30;99.90
41668;DHT22;27356;50.920;5.350;2024-01-30T06:42:37;10.20;99.90
41668;DHT22;27356;50.920;5.350;2024-01-30T06:45:03;10.30;99.90
41668;DHT22;27356;50.920;5.350;2024-01-30T06:47:29;10.40;99.90
41668;DHT22;27356;50.920;5.350;2024-01-30T06:49:56;10.40;99.90
41668;DHT22;27356;50.920;5.350;2024-01-30T06:52:22;10.50;99.90
41668;DHT22;27356;50.920;5.350;2024-01-30T06:54:48;10.40;99.90
41668;DHT22;27356;50.920;5.350;2024-01-30T06:57:14;10.50;99.90
41668;DHT22;27356;50.920;5.350;2024-01-30T06:59:39;10.50;99.90
41668;DHT22;27356;50.920;5.350;2024-01-30T07:02:12;10.40;99.90
41668;DHT22;27356;50.920;5.350;2024-01-30T07:04:38;10.40;99.90
41668;DHT22;27356;50.920;5.350;2024-01-30T07:07:05;10.40;99.90
41668;DHT22;27356;50.920;5.350;2024-01-30T07:09:31;10.30;99.90
41668;DHT22;27356;50.920;5.350;2024-01-30T07:11:57;10.30;99.90
41668;DHT22;27356;50.920;5.350;2024-01-30T07:14:25;10.40;99.90
41668;DHT22;27356;50.920;5.350;2024-01-30T07:16:51;10.40;99.90
41668;DHT22;27356;50.920;5.350;2024-01-30T07:19:17;10.50;99.90
41668;DHT22;27356;50.920;5.350;2024-01-30T07:21:42;10.50;99.90
41668;DHT22;27356;50.920;5.350;2024-01-30T07:24:08;10.40;99.90
41668;DHT22;27356;50.920;5.350;2024-01-30T07:26:34;10.40;99.90
41668;DHT22;27356;50.920;5.350;2024-01-30T07:29:01;10.40;99.90
41668;DHT22;27356;50.920;5.350;2024-01-30T07:31:27;10.40;99.90
41668;DHT22;27356;50.920;5.350;2024-01-30T07:33:53;10.50;99.90
41668;DHT22;27356;50.920;5.350;2024-01-30T07:36:20;10.60;99.90
41668;DHT22;27356;50.920;5.350;2024-01-30T07:38:45;10.60;99.90
41668;DHT22;27356;50.920;5.350;2024-01-30T07:41:11;10.60;99.90
41668;DHT22;27356;50.920;5.350;2024-01-30T07:43:38;10.70;99.90
41668;DHT22;27356;50.920;5.350;2024-01-30T07:46:04;10.70;99.90
41668;DHT22;27356;50.920;5.350;2024-01-30T07:48:33;10.80;99.90
41668;DHT22;27356;50.920;5.350;2024-01-30T07:50:59;10.80;99.90
41668;DHT22;27356;50.920;5.350;2024-01-30T07:53:26;10.80;99.90
41668;DHT22;27356;50.920;5.350;2024-01-30T07:55:52;10.80;99.90
41668;DHT22;27356;50.920;5.350;2024-01-30T07:58:18;10.80;99.90
41668;DHT22;27356;50.920;5.350;2024-01-30T08:00:44;10.80;99.90
41668;DHT22;27356;50.920;5.350;2024-01-30T08:03:10;10.80;99.90
41668;DHT22;27356;50.920;5.350;2024-01-30T08:05:36;10.90;99.90
41668;DHT22;27356;50.920;5.350;2024-01-30T08:08:03;10.80;99.90
41668;DHT22;27356;50.920;5.350;2024-01-30T08:10:29;10.80;99.90
41668;DHT22;27356;50.920;5.350;2024-01-30T08:12:55;10.90;99.90
41668;DHT22;27356;50.920;5.350;2024-01-30T08:15:21;11.00;99.90
41668;DHT22;27356;50.920;5.350;2024-01-30T08:17:46;11.00;99.90
41668;DHT22;27356;50.920;5.350;2024-01-30T08:20:16;11.00;99.90
41668;DHT22;27356;50.920;5.350;2024-01-30T08:22:42;11.00;99.90
41668;DHT22;27356;50.920;5.350;2024-01-30T08:25:08;11.00;99.90
41668;DHT22;27356;50.920;5.350;2024-01-30T08:27:35;11.00;99.90
41668;DHT22;27356;50.920;5.350;2024-01-30T08:30:05;11.10;99.90
41668;DHT22;27356;50.920;5.350;2024-01-30T08:32:31;11.20;99.90
41668;DHT22;27356;50.920;5.350;2024-01-30T08:34:58;11.20;99.90
41668;DHT22;27356;50.920;5.350;2024-01-30T08:37:23;11.40;99.90
41668;DHT22;27356;50.920;5.350;2024-01-30T08:39:49;11.50;99.90
41668;DHT22;27356;50.920;5.350;2024-01-30T08:42:15;11.50;99.90
41668;DHT22;27356;50.920;5.350;2024-01-30T08:44:44;11.50;99.90
41668;DHT22;27356;50.920;5.350;2024-01-30T08:47:09;11.40;99.90
41668;DHT22;27356;50.920;5.350;2024-01-30T08:49:35;11.40;99.90
41668;DHT22;27356;50.920;5.350;2024-01-30T08:52:01;11.50;99.90
41668;DHT22;27356;50.920;5.350;2024-01-30T08:54:27;11.60;99.90
41668;DHT22;27356;50.920;5.350;2024-01-30T08:56:53;11.80;99.90
41668;DHT22;27356;50.920;5.350;2024-01-30T08:59:18;11.80;99.90
41668;DHT22;27356;50.920;5.350;2024-01-30T09:01:44;11.80;99.90
41668;DHT22;27356;50.920;5.350;2024-01-30T09:04:12;11.70;99.90
41668;DHT22;27356;50.920;5.350;2024-01-30T09:06:38;11.80;99.90
41668;DHT22;27356;50.920;5.350;2024-01-30T09:09:04;11.80;99.90
41668;DHT22;27356;50.920;5.350;2024-01-30T09:11:31;12.00;99.90
41668;DHT22;27356;50.920;5.350;2024-01-30T09:13:57;12.10;99.90
41668;DHT22;27356;50.920;5.350;2024-01-30T09:16:22;12.00;99.90
41668;DHT22;27356;50.920;5.350;2024-01-30T09:18:48;12.00;99.90
41668;DHT22;27356;50.920;5.350;2024-01-30T09:21:15;12.00;99.90
41668;DHT22;27356;50.920;5.350;2024-01-30T09:23:40;12.20;99.90
41668;DHT22;27356;50.920;5.350;2024-01-30T09:26:06;12.30;99.90
41668;DHT22;27356;50.920;5.350;2024-01-30T09:28:32;12.30;99.90
41668;DHT22;27356;50.920;5.350;2024-01-30T09:30:57;12.40;99.90
41668;DHT22;27356;50.920;5.350;2024-01-30T09:33:23;12.50;99.90
41668;DHT22;27356;50.920;5.350;2024-01-30T09:35:49;12.50;99.90
41668;DHT22;27356;50.920;5.350;2024-01-30T09:38:15;12.70;99.90
41668;DHT22;27356;50.920;5.350;2024-01-30T09:40:41;12.60;99.90
41668;DHT22;27356;50.920;5.350;2024-01-30T09:43:07;12.50;99.90
41668;DHT22;27356;50.920;5.350;2024-01-30T09:45:33;12.50;99.90
41668;DHT22;27356;50.920;5.350;2024-01-30T09:48:00;12.50;99.90
41668;DHT22;27356;50.920;5.350;2024-01-30T09:50:27;12.50;99.90
41668;DHT22;27356;50.920;5.350;2024-01-30T09:52:55;12.60;99.90
41668;DHT22;27356;50.920;5.350;2024-01-30T09:55:22;12.70;99.90
41668;DHT22;27356;50.920;5.350;2024-01-30T09:57:48;12.60;99.90
41668;DHT22;27356;50.920;5.350;2024-01-30T10:00:14;12.60;99.90
41668;DHT22;27356;50.920;5.350;2024-01-30T10:02:40;12.60;99.90
41668;DHT22;27356;50.920;5.350;2024-01-30T10:05:08;12.70;99.90
41668;DHT22;27356;50.920;5.350;2024-01-30T10:07:34;12.80;99.90
41668;DHT22;27356;50.920;5.350;2024-01-30T10:10:00;12.80;99.90
41668;DHT22;27356;50.920;5.350;2024-01-30T10:12:26;12.80;99.90
41668;DHT22;27356;50.920;5.350;2024-01-30T10:14:52;13.00;99.90
41668;DHT22;27356;50.920;5.350;2024-01-30T10:17:20;13.10;99.90
41668;DHT22;27356;50.920;5.350;2024-01-30T10:19:47;13.20;99.90
41668;DHT22;27356;50.920;5.350;2024-01-30T10:22:12;13.30;99.90
41668;DHT22;27356;50.920;5.350;2024-01-30T10:24:38;13.50;99.90
41668;DHT22;27356;50.920;5.350;2024-01-30T10:27:05;13.60;99.90
41668;DHT22;27356;50.920;5.350;2024-01-30T10:29:31;13.60;99.90
41668;DHT22;27356;50.920;5.350;2024-01-30T10:31:58;13.50;99.90
41668;DHT22;27356;50.920;5.350;2024-01-30T10:34:24;13.60;99.90
41668;DHT22;27356;50.920;5.350;2024-01-30T10:36:53;13.50;99.90
41668;DHT22;27356;50.920;5.350;2024-01-30T10:39:22;13.50;99.90
41668;DHT22;27356;50.920;5.350;2024-01-30T10:41:51;13.30;99.90
41668;DHT22;27356;50.920;5.350;2024-01-30T10:44:20;13.30;99.90
41668;DHT22;27356;50.920;5.350;2024-01-30T10:46:55;13.30;99.90
41668;DHT22;27356;50.920;5.350;2024-01-30T10:49:23;13.40;99.90
41668;DHT22;27356;50.920;5.350;2024-01-30T10:51:50;13.40;99.90
41668;DHT22;27356;50.920;5.350;2024-01-30T10:54:17;13.30;99.90
41668;DHT22;27356;50.920;5.350;2024-01-30T10:56:44;13.30;99.90
41668;DHT22;27356;50.920;5.350;2024-01-30T10:59:10;13.30;99.90
41668;DHT22;27356;50.920;5.350;2024-01-30T11:01:38;13.20;99.90
41668;DHT22;27356;50.920;5.350;2024-01-30T11:04:05;13.20;99.90
41668;DHT22;27356;50.920;5.350;2024-01-30T11:06:31;13.20;99.90
41668;DHT22;27356;50.920;5.350;2024-01-30T11:09:02;13.20;99.90
41668;DHT22;27356;50.920;5.350;2024-01-30T11:11:57;13.40;99.90
41668;DHT22;27356;50.920;5.350;2024-01-30T11:14:29;13.30;99.90
41668;DHT22;27356;50.920;5.350;2024-01-30T11:16:59;13.10;99.90
41668;DHT22;27356;50.920;5.350;2024-01-30T11:19:25;13.00;99.90
41668;DHT22;27356;50.920;5.350;2024-01-30T11:21:53;13.00;99.90
41668;DHT22;27356;50.920;5.350;2024-01-30T11:24:20;13.10;99.90
41668;DHT22;27356;50.920;5.350;2024-01-30T11:26:55;13.10;99.90
41668;DHT22;27356;50.920;5.350;2024-01-30T11:29:27;13.20;99.90
41668;DHT22;27356;50.920;5.350;2024-01-30T11:31:59;13.20;99.90
41668;DHT22;27356;50.920;5.350;2024-01-30T11:34:25;13.00;99.90
41668;DHT22;27356;50.920;5.350;2024-01-30T11:37:03;13.00;99.90
41668;DHT22;27356;50.920;5.350;2024-01-30T11:39:30;12.80;99.90
41668;DHT22;27356;50.920;5.350;2024-01-30T11:41:56;13.00;99.90
41668;DHT22;27356;50.920;5.350;2024-01-30T11:44:23;12.90;99.90
41668;DHT22;27356;50.920;5.350;2024-01-30T11:46:49;13.00;99.90
41668;DHT22;27356;50.920;5.350;2024-01-30T11:49:16;13.10;99.90
41668;DHT22;27356;50.920;5.350;2024-01-30T11:51:43;12.90;99.90
41668;DHT22;27356;50.920;5.350;2024-01-30T11:54:10;12.80;99.90
41668;DHT22;27356;50.920;5.350;2024-01-30T11:56:37;12.70;99.90
41668;DHT22;27356;50.920;5.350;2024-01-30T11:59:04;12.70;99.90
41668;DHT22;27356;50.920;5.350;2024-01-30T12:01:31;12.80;99.90
41668;DHT22;27356;50.920;5.350;2024-01-30T12:03:59;12.80;99.90
41668;DHT22;27356;50.920;5.350;2024-01-30T12:06:25;12.80;99.90
41668;DHT22;27356;50.920;5.350;2024-01-30T12:08:57;12.80;99.90
41668;DHT22;27356;50.920;5.350;2024-01-30T12:11:24;13.00;99.90
41668;DHT22;27356;50.920;5.350;2024-01-30T12:13:52;12.80;99.90
41668;DHT22;27356;50.920;5.350;2024-01-30T12:16:18;12.80;99.90
41668;DHT22;27356;50.920;5.350;2024-01-30T12:18:44;12.80;99.90
41668;DHT22;27356;50.920;5.350;2024-01-30T12:21:10;12.90;99.90
41668;DHT22;27356;50.920;5.350;2024-01-30T12:23:36;13.00;99.90
41668;DHT22;27356;50.920;5.350;2024-01-30T12:26:03;13.00;99.90
41668;DHT22;27356;50.920;5.350;2024-01-30T12:28:32;13.10;99.90
41668;DHT22;27356;50.920;5.350;2024-01-30T12:31:02;13.10;99.90
41668;DHT22;27356;50.920;5.350;2024-01-30T12:33:29;13.10;99.90
41668;DHT22;27356;50.920;5.350;2024-01-30T12:35:56;13.00;99.90
41668;DHT22;27356;50.920;5.350;2024-01-30T12:38:23;12.90;99.90
41668;DHT22;27356;50.920;5.350;2024-01-30T12:40:56;12.80;99.90
41668;DHT22;27356;50.920;5.350;2024-01-30T12:43:26;12.70;99.90
41668;DHT22;27356;50.920;5.350;2024-01-30T12:45:53;12.50;99.90
41668;DHT22;27356;50.920;5.350;2024-01-30T12:48:19;12.50;99.90
41668;DHT22;27356;50.920;5.350;2024-01-30T12:50:45;12.50;99.90
41668;DHT22;27356;50.920;5.350;2024-01-30T12:53:11;12.50;99.90
41668;DHT22;27356;50.920;5.350;2024-01-30T12:55:38;12.40;99.90
41668;DHT22;27356;50.920;5.350;2024-01-30T12:58:04;12.30;99.90
41668;DHT22;27356;50.920;5.350;2024-01-30T13:00:29;12.30;99.90
41668;DHT22;27356;50.920;5.350;2024-01-30T13:02:55;12.30;99.90
41668;DHT22;27356;50.920;5.350;2024-01-30T13:05:24;12.40;99.90
41668;DHT22;27356;50.920;5.350;2024-01-30T13:07:50;12.40;99.90
41668;DHT22;27356;50.920;5.350;2024-01-30T13:10:17;12.50;99.90
41668;DHT22;27356;50.920;5.350;2024-01-30T13:12:48;12.50;99.90
41668;DHT22;27356;50.920;5.350;2024-01-30T13:15:14;12.50;99.90
41668;DHT22;27356;50.920;5.350;2024-01-30T13:17:40;12.50;99.90
41668;DHT22;27356;50.920;5.350;2024-01-30T13:20:08;12.60;99.90
41668;DHT22;27356;50.920;5.350;2024-01-30T13:22:34;12.80;99.90
41668;DHT22;27356;50.920;5.350;2024-01-30T13:25:00;12.90;99.90
41668;DHT22;27356;50.920;5.350;2024-01-30T13:27:25;12.70;99.90
41668;DHT22;27356;50.920;5.350;2024-01-30T13:29:53;12.60;99.90
41668;DHT22;27356;50.920;5.350;2024-01-30T13:32:18;12.60;99.90
41668;DHT22;27356;50.920;5.350;2024-01-30T13:34:44;12.60;99.90
41668;DHT22;27356;50.920;5.350;2024-01-30T13:37:10;12.50;99.90
41668;DHT22;27356;50.920;5.350;2024-01-30T13:39:36;12.50;99.90
41668;DHT22;27356;50.920;5.350;2024-01-30T13:42:02;12.60;99.90
41668;DHT22;27356;50.920;5.350;2024-01-30T13:44:28;12.70;99.90
41668;DHT22;27356;50.920;5.350;2024-01-30T13:46:54;12.80;99.90
41668;DHT22;27356;50.920;5.350;2024-01-30T13:49:20;12.60;99.90
41668;DHT22;27356;50.920;5.350;2024-01-30T13:51:47;12.50;99.90
41668;DHT22;27356;50.920;5.350;2024-01-30T13:54:13;12.40;99.90
41668;DHT22;27356;50.920;5.350;2024-01-30T13:56:38;12.40;99.90
41668;DHT22;27356;50.920;5.350;2024-01-30T13:59:04;12.30;99.90
41668;DHT22;27356;50.920;5.350;2024-01-30T14:01:32;12.10;99.90
41668;DHT22;27356;50.920;5.350;2024-01-30T14:03:58;12.10;99.90
41668;DHT22;27356;50.920;5.350;2024-01-30T14:06:24;12.00;99.90
41668;DHT22;27356;50.920;5.350;2024-01-30T14:08:50;11.90;99.90
41668;DHT22;27356;50.920;5.350;2024-01-30T14:11:16;12.00;99.90
41668;DHT22;27356;50.920;5.350;2024-01-30T14:13:41;11.80;99.90
41668;DHT22;27356;50.920;5.350;2024-01-30T14:16:07;11.70;99.90
41668;DHT22;27356;50.920;5.350;2024-01-30T14:18:33;11.70;99.90
41668;DHT22;27356;50.920;5.350;2024-01-30T14:20:59;11.70;99.90
41668;DHT22;27356;50.920;5.350;2024-01-30T14:23:24;11.70;99.90
41668;DHT22;27356;50.920;5.350;2024-01-30T14:25:53;11.70;99.90
41668;DHT22;27356;50.920;5.350;2024-01-30T14:28:19;11.70;99.90
41668;DHT22;27356;50.920;5.350;2024-01-30T14:30:45;11.60;99.90
41668;DHT22;27356;50.920;5.350;2024-01-30T14:33:11;11.60;99.90
41668;DHT22;27356;50.920;5.350;2024-01-30T14:35:37;11.50;99.90
41668;DHT22;27356;50.920;5.350;2024-01-30T14:38:03;11.50;99.90
41668;DHT22;27356;50.920;5.350;2024-01-30T14:40:30;11.50;99.90
41668;DHT22;27356;50.920;5.350;2024-01-30T14:42:56;11.50;99.90
41668;DHT22;27356;50.920;5.350;2024-01-30T14:45:22;11.60;99.90
41668;DHT22;27356;50.920;5.350;2024-01-30T14:47:48;11.60;99.90
41668;DHT22;27356;50.920;5.350;2024-01-30T14:50:14;11.60;99.90
41668;DHT22;27356;50.920;5.350;2024-01-30T14:52:42;11.70;99.90
41668;DHT22;27356;50.920;5.350;2024-01-30T14:55:08;11.60;99.90
41668;DHT22;27356;50.920;5.350;2024-01-30T14:57:34;11.70;99.90
41668;DHT22;27356;50.920;5.350;2024-01-30T15:00:01;11.90;99.90
41668;DHT22;27356;50.920;5.350;2024-01-30T15:02:26;11.90;99.90
41668;DHT22;27356;50.920;5.350;2024-01-30T15:04:55;12.00;99.90
41668;DHT22;27356;50.920;5.350;2024-01-30T15:07:21;12.00;99.90
41668;DHT22;27356;50.920;5.350;2024-01-30T15:09:47;12.00;99.90
41668;DHT22;27356;50.920;5.350;2024-01-30T15:12:13;12.00;99.90
41668;DHT22;27356;50.920;5.350;2024-01-30T15:14:38;11.90;99.90
41668;DHT22;27356;50.920;5.350;2024-01-30T15:17:04;11.80;99.90
41668;DHT22;27356;50.920;5.350;2024-01-30T15:19:30;11.70;99.90
41668;DHT22;27356;50.920;5.350;2024-01-30T15:21:56;11.70;99.90
41668;DHT22;27356;50.920;5.350;2024-01-30T15:24:22;11.50;99.90
41668;DHT22;27356;50.920;5.350;2024-01-30T15:26:50;11.40;99.90
41668;DHT22;27356;50.920;5.350;2024-01-30T15:29:17;11.50;99.90